Time;durP1;ratioP1;P1;durP2;ratioP2;P2;SDS_P1;SDS_P2;PMS_P1;PMS_P2;Temp;Humidity;BMP_temperature;BMP_pressure;BME280_temperature;BME280_humidity;BME280_pressure;Samples;Min_cycle;Max_cycle;Signal;HPM_P1;HPM_P2
2021/07/23 00:00:40;;;;;;;13.15;7.40;;;17.50;99.90;;;;;;1967841;73;21060;-78
2021/07/23 00:03:06;;;;;;;14.45;7.92;;;17.40;99.90;;;;;;1968202;73;21054;-78
2021/07/23 00:05:32;;;;;;;12.70;7.58;;;17.40;99.90;;;;;;1967996;73;21132;-78
2021/07/23 00:07:58;;;;;;;13.40;7.42;;;17.40;99.90;;;;;;1968166;73;21023;-78
2021/07/23 00:10:24;;;;;;;9.08;6.83;;;17.40;99.90;;;;;;1967986;73;21132;-78
2021/07/23 00:12:51;;;;;;;10.15;7.03;;;17.40;99.90;;;;;;1968184;73;21051;-78
2021/07/23 00:15:17;;;;;;;14.30;7.28;;;17.40;99.90;;;;;;1968010;72;21054;-78
2021/07/23 00:17:44;;;;;;;10.50;7.17;;;17.40;99.90;;;;;;1968159;73;21059;-78
2021/07/23 00:20:10;;;;;;;9.40;7.72;;;17.40;99.90;;;;;;1968289;73;21035;-78
2021/07/23 00:22:38;;;;;;;17.73;7.28;;;17.30;99.90;;;;;;1968187;73;21411;-78
2021/07/23 00:25:04;;;;;;;16.02;7.72;;;17.40;99.90;;;;;;1968099;73;21217;-78
2021/07/23 00:27:30;;;;;;;9.68;7.25;;;17.30;99.90;;;;;;1968208;73;21050;-78
2021/07/23 00:29:56;;;;;;;15.08;7.53;;;17.40;99.90;;;;;;1930921;73;21104;-78
2021/07/23 00:32:22;;;;;;;17.07;7.80;;;17.40;99.90;;;;;;1968207;73;21054;-78
2021/07/23 00:34:48;;;;;;;11.45;7.53;;;17.40;99.90;;;;;;1968242;73;21119;-78
2021/07/23 00:37:14;;;;;;;11.33;6.97;;;17.40;99.90;;;;;;1968070;73;21058;-78
2021/07/23 00:39:40;;;;;;;9.08;7.45;;;17.40;99.90;;;;;;1968045;73;21027;-78
2021/07/23 00:42:07;;;;;;;10.75;7.58;;;17.40;99.90;;;;;;1968002;73;21050;-78
2021/07/23 00:44:33;;;;;;;8.78;6.83;;;17.30;99.90;;;;;;1967971;73;21050;-78
2021/07/23 00:46:59;;;;;;;9.13;6.97;;;17.40;99.90;;;;;;1968009;73;21058;-78
2021/07/23 00:49:25;;;;;;;9.65;7.20;;;17.30;99.90;;;;;;1967937;73;21023;-78
2021/07/23 00:51:51;;;;;;;13.15;7.22;;;17.30;99.90;;;;;;1967950;72;21127;-78
2021/07/23 00:54:17;;;;;;;14.05;6.70;;;17.40;99.90;;;;;;1967983;71;21123;-78
2021/07/23 00:56:43;;;;;;;9.98;7.53;;;17.40;99.90;;;;;;1967966;73;21063;-79
2021/07/23 00:59:11;;;;;;;10.08;6.78;;;17.40;99.90;;;;;;1968069;73;21142;-78
2021/07/23 01:01:37;;;;;;;17.92;7.22;;;17.40;99.90;;;;;;1968146;73;21120;-78
2021/07/23 01:04:03;;;;;;;11.73;7.37;;;17.30;99.90;;;;;;1968023;73;21070;-78
2021/07/23 01:06:29;;;;;;;9.00;7.05;;;17.40;99.90;;;;;;1967153;73;21139;-77
2021/07/23 01:08:55;;;;;;;9.00;6.78;;;17.30;99.90;;;;;;1968081;73;21061;-78
2021/07/23 01:11:21;;;;;;;9.20;6.40;;;17.20;99.90;;;;;;1967917;73;21030;-78
2021/07/23 01:13:48;;;;;;;8.63;6.45;;;17.20;99.90;;;;;;1968047;73;21120;-78
2021/07/23 01:16:14;;;;;;;14.98;6.95;;;17.20;99.90;;;;;;1967769;73;21069;-78
2021/07/23 01:18:41;;;;;;;20.05;7.60;;;17.10;99.90;;;;;;1968009;73;21178;-78
2021/07/23 01:21:08;;;;;;;10.35;7.25;;;17.10;99.90;;;;;;1967881;73;21035;-78
2021/07/23 01:23:34;;;;;;;8.25;6.85;;;17.10;99.90;;;;;;1967966;73;21123;-77
2021/07/23 01:26:00;;;;;;;10.40;7.20;;;17.10;99.90;;;;;;1967881;73;21079;-78
2021/07/23 01:28:26;;;;;;;9.30;7.20;;;17.10;99.90;;;;;;1967919;73;21120;-77
2021/07/23 01:30:52;;;;;;;10.93;6.95;;;17.10;99.90;;;;;;1967986;73;21120;-78
2021/07/23 01:33:18;;;;;;;10.15;7.12;;;17.10;99.90;;;;;;1966659;73;21144;-78
2021/07/23 01:35:44;;;;;;;14.30;7.50;;;17.00;99.90;;;;;;1967984;73;21113;-77
2021/07/23 01:38:10;;;;;;;8.80;7.03;;;17.00;99.90;;;;;;1968331;73;21039;-76
2021/07/23 01:40:37;;;;;;;10.90;7.25;;;17.00;99.90;;;;;;1968112;73;21062;-77
2021/07/23 01:43:03;;;;;;;15.72;6.95;;;16.90;99.90;;;;;;1967993;73;21065;-78
2021/07/23 01:45:29;;;;;;;14.43;7.70;;;16.80;99.90;;;;;;1968130;72;21137;-78
2021/07/23 01:47:55;;;;;;;10.30;7.25;;;16.80;99.90;;;;;;1967945;71;21183;-78
2021/07/23 01:50:21;;;;;;;10.58;7.85;;;16.80;99.90;;;;;;1968124;73;21069;-78
2021/07/23 01:52:47;;;;;;;9.95;7.50;;;16.70;99.90;;;;;;1967924;73;21070;-78
2021/07/23 01:55:14;;;;;;;13.83;8.35;;;16.70;99.90;;;;;;1965843;71;21039;-78
2021/07/23 01:57:40;;;;;;;11.97;7.58;;;16.70;99.90;;;;;;1967894;73;21036;-77
2021/07/23 02:00:06;;;;;;;12.65;8.05;;;16.60;99.90;;;;;;1963828;72;21108;-78
2021/07/23 02:02:34;;;;;;;10.90;7.95;;;16.70;99.90;;;;;;1965336;73;21067;-78
2021/07/23 02:05:00;;;;;;;14.80;8.20;;;16.60;99.90;;;;;;1968122;73;21505;-78
2021/07/23 02:07:26;;;;;;;20.00;8.00;;;16.70;99.90;;;;;;1968085;73;21444;-78
2021/07/23 02:09:52;;;;;;;11.68;7.30;;;16.70;99.90;;;;;;1967887;71;21477;-78
2021/07/23 02:12:18;;;;;;;10.60;7.85;;;16.60;99.90;;;;;;1968072;71;21540;-78
2021/07/23 02:14:44;;;;;;;10.43;7.20;;;16.60;99.90;;;;;;1968061;73;21474;-78
2021/07/23 02:17:13;;;;;;;9.98;6.95;;;16.60;99.90;;;;;;1968104;73;21485;-78
2021/07/23 02:19:38;;;;;;;13.50;7.72;;;16.60;99.90;;;;;;1967682;73;21102;-77
2021/07/23 02:22:04;;;;;;;9.20;7.67;;;16.50;99.90;;;;;;1968167;73;21110;-78
2021/07/23 02:24:31;;;;;;;9.93;8.20;;;16.40;99.90;;;;;;1967934;73;21061;-78
2021/07/23 02:26:57;;;;;;;15.10;7.90;;;16.30;99.90;;;;;;1968087;73;21058;-77
2021/07/23 02:29:23;;;;;;;10.75;8.08;;;16.30;99.90;;;;;;1967874;73;21065;-77
2021/07/23 02:31:49;;;;;;;12.58;7.95;;;16.30;99.90;;;;;;1968078;71;21027;-77
2021/07/23 02:34:15;;;;;;;17.20;8.63;;;16.30;99.90;;;;;;1967970;73;21482;-77
2021/07/23 02:36:41;;;;;;;9.20;7.83;;;16.20;99.90;;;;;;1967972;73;21493;-77
2021/07/23 02:39:07;;;;;;;10.48;7.92;;;16.20;99.90;;;;;;1967874;73;21434;-78
2021/07/23 02:41:33;;;;;;;16.05;7.55;;;16.20;99.90;;;;;;1968120;73;21470;-78
2021/07/23 02:43:59;;;;;;;11.53;7.62;;;16.20;99.90;;;;;;1968050;73;21426;-77
2021/07/23 02:46:26;;;;;;;16.67;8.08;;;16.20;99.90;;;;;;1967887;73;21551;-78
2021/07/23 02:48:52;;;;;;;12.25;7.60;;;16.10;99.90;;;;;;1968074;73;21415;-78
2021/07/23 02:51:18;;;;;;;18.07;8.70;;;16.10;99.90;;;;;;1967880;72;21485;-78
2021/07/23 02:53:44;;;;;;;9.45;7.28;;;16.00;99.90;;;;;;1968049;73;21473;-78
2021/07/23 02:56:10;;;;;;;10.15;7.85;;;16.00;99.90;;;;;;1967949;73;21022;-78
2021/07/23 02:58:37;;;;;;;13.38;8.35;;;15.90;99.90;;;;;;1967963;73;21124;-78
2021/07/23 03:01:03;;;;;;;12.13;7.97;;;15.90;99.90;;;;;;1967956;73;21062;-78
2021/07/23 03:03:29;;;;;;;9.43;7.58;;;15.90;99.90;;;;;;1967949;73;21058;-78
2021/07/23 03:05:56;;;;;;;8.78;7.60;;;15.90;99.90;;;;;;1967937;73;21152;-77
2021/07/23 03:08:22;;;;;;;9.00;7.85;;;15.90;99.90;;;;;;1967909;73;21027;-77
2021/07/23 03:10:48;;;;;;;10.80;7.85;;;15.90;99.90;;;;;;1967935;73;21068;-77
2021/07/23 03:13:14;;;;;;;11.53;8.53;;;15.80;99.90;;;;;;1967921;72;21135;-78
2021/07/23 03:15:40;;;;;;;9.33;7.42;;;15.80;99.90;;;;;;1967895;71;21065;-78
2021/07/23 03:18:06;;;;;;;13.98;8.40;;;15.80;99.90;;;;;;1968047;73;21139;-78
2021/07/23 03:20:32;;;;;;;9.90;7.55;;;15.80;99.90;;;;;;1967918;73;21042;-77
2021/07/23 03:22:58;;;;;;;9.18;7.58;;;15.80;99.90;;;;;;1967927;73;21485;-77
2021/07/23 03:25:25;;;;;;;14.40;7.72;;;15.80;99.90;;;;;;1967924;73;21451;-77
2021/07/23 03:27:51;;;;;;;10.38;7.12;;;15.70;99.90;;;;;;1967910;73;21489;-77
2021/07/23 03:30:17;;;;;;;9.78;7.60;;;15.60;99.90;;;;;;1967885;71;21439;-77
2021/07/23 03:32:43;;;;;;;18.10;7.97;;;15.60;99.90;;;;;;1967900;73;21552;-77
2021/07/23 03:35:09;;;;;;;8.10;7.15;;;15.60;99.90;;;;;;1967998;73;21493;-78
2021/07/23 03:37:35;;;;;;;10.88;7.85;;;15.60;99.90;;;;;;1967873;72;21517;-78
2021/07/23 03:40:01;;;;;;;10.80;7.65;;;15.60;99.90;;;;;;1968034;72;21049;-78
2021/07/23 03:42:27;;;;;;;12.23;8.15;;;15.60;99.90;;;;;;1966994;73;21069;-78
2021/07/23 03:44:54;;;;;;;10.93;7.92;;;15.50;99.90;;;;;;1931486;73;21031;-77
2021/07/23 03:47:20;;;;;;;10.03;7.45;;;15.50;99.90;;;;;;1968127;73;21058;-78
2021/07/23 03:49:46;;;;;;;9.75;7.53;;;15.40;99.90;;;;;;1968169;73;21066;-78
2021/07/23 03:52:12;;;;;;;11.95;8.30;;;15.40;99.90;;;;;;1968126;73;21062;-77
2021/07/23 03:54:38;;;;;;;18.45;8.20;;;15.50;99.90;;;;;;1968120;73;21054;-77
2021/07/23 03:57:04;;;;;;;12.10;8.13;;;15.40;99.90;;;;;;1968097;73;21062;-77
2021/07/23 03:59:30;;;;;;;10.88;7.67;;;15.50;99.90;;;;;;1968020;73;21026;-78
2021/07/23 04:01:56;;;;;;;11.28;7.95;;;15.50;99.90;;;;;;1968026;73;21039;-77
2021/07/23 04:04:23;;;;;;;13.75;8.33;;;15.50;99.90;;;;;;1967385;72;21133;-77
2021/07/23 04:06:49;;;;;;;11.48;7.78;;;15.50;99.90;;;;;;1968123;73;21046;-77
2021/07/23 04:09:15;;;;;;;11.65;8.23;;;15.50;99.90;;;;;;1965548;73;21094;-78
2021/07/23 04:11:52;;;;;;;10.82;8.15;;;15.50;99.90;;;;;;1968047;73;21062;-77
2021/07/23 04:14:15;;;;;;;11.28;8.08;;;15.40;99.90;;;;;;1964201;72;21133;-77
2021/07/23 04:16:41;;;;;;;11.45;7.78;;;15.50;99.90;;;;;;1966793;73;21081;-77
2021/07/23 04:19:07;;;;;;;13.58;8.33;;;15.50;99.90;;;;;;1968083;73;21069;-77
2021/07/23 04:21:33;;;;;;;9.50;7.40;;;15.50;99.90;;;;;;1968238;73;21066;-77
2021/07/23 04:23:59;;;;;;;10.60;7.72;;;15.50;99.90;;;;;;1968091;73;21062;-77
2021/07/23 04:26:25;;;;;;;10.82;7.83;;;15.50;99.90;;;;;;1968088;73;21160;-77
2021/07/23 04:28:52;;;;;;;11.80;7.37;;;15.60;99.90;;;;;;1968150;73;21124;-77
2021/07/23 04:31:18;;;;;;;9.95;7.33;;;15.50;99.90;;;;;;1968045;73;21119;-77
2021/07/23 04:33:44;;;;;;;16.30;7.65;;;15.50;99.90;;;;;;1968012;73;21070;-77
2021/07/23 04:36:11;;;;;;;9.23;7.17;;;15.60;99.90;;;;;;1968053;73;21153;-77
2021/07/23 04:38:37;;;;;;;13.25;7.35;;;15.60;99.90;;;;;;1968050;73;21128;-77
2021/07/23 04:41:03;;;;;;;20.92;7.58;;;15.60;99.90;;;;;;1967868;73;21144;-78
2021/07/23 04:43:31;;;;;;;11.53;7.50;;;15.60;99.90;;;;;;1968037;73;21035;-77
2021/07/23 04:45:57;;;;;;;15.13;8.33;;;15.60;99.90;;;;;;1967858;73;21074;-77
2021/07/23 04:48:24;;;;;;;17.67;8.60;;;15.70;99.90;;;;;;1968094;73;21058;-77
2021/07/23 04:50:50;;;;;;;19.40;8.33;;;15.70;99.90;;;;;;1967818;73;21131;-77
2021/07/23 04:53:16;;;;;;;14.85;8.88;;;15.80;99.90;;;;;;1968083;73;21047;-77
2021/07/23 04:55:47;;;;;;;12.37;8.53;;;15.70;99.90;;;;;;1967841;73;21494;-78
2021/07/23 04:58:13;;;;;;;17.27;8.75;;;15.80;99.90;;;;;;1966856;73;21114;-78
2021/07/23 05:00:38;;;;;;;14.95;9.10;;;15.80;99.90;;;;;;1967774;73;21124;-78
2021/07/23 05:03:04;;;;;;;12.53;8.20;;;15.90;99.90;;;;;;1968195;73;21143;-78
2021/07/23 05:05:30;;;;;;;18.60;8.23;;;16.00;99.90;;;;;;1968214;73;21062;-77
2021/07/23 05:07:56;;;;;;;8.93;7.60;;;16.10;99.90;;;;;;1968156;73;21124;-76
2021/07/23 05:10:22;;;;;;;11.33;7.87;;;16.20;99.90;;;;;;1968154;73;21061;-77
2021/07/23 05:12:49;;;;;;;11.80;8.20;;;16.20;99.90;;;;;;1968059;73;21066;-77
2021/07/23 05:15:15;;;;;;;16.90;8.25;;;16.30;99.90;;;;;;1968177;73;21066;-75
2021/07/23 05:17:41;;;;;;;10.20;8.88;;;16.40;99.90;;;;;;1968009;73;21033;-75
2021/07/23 05:20:07;;;;;;;10.08;8.78;;;16.40;99.90;;;;;;1968146;73;21030;-76
2021/07/23 05:22:33;;;;;;;14.90;8.40;;;16.50;99.90;;;;;;1968139;73;21534;-75
2021/07/23 05:24:59;;;;;;;17.40;8.75;;;16.50;99.90;;;;;;1968105;73;21559;-76
2021/07/23 05:27:26;;;;;;;12.95;9.08;;;16.60;99.90;;;;;;1967966;72;21524;-77
2021/07/23 05:29:52;;;;;;;15.05;8.55;;;16.70;99.90;;;;;;1967954;73;21447;-76
2021/07/23 05:32:18;;;;;;;16.42;10.20;;;16.80;99.90;;;;;;1967752;73;21502;-77
2021/07/23 05:34:44;;;;;;;14.87;8.78;;;16.70;99.90;;;;;;1968085;73;21474;-78
2021/07/23 05:37:10;;;;;;;9.75;8.23;;;16.80;99.90;;;;;;1967804;73;21528;-78
2021/07/23 05:39:36;;;;;;;13.75;9.13;;;17.00;99.90;;;;;;1968031;73;21128;-78
2021/07/23 05:42:03;;;;;;;11.68;9.30;;;17.20;99.90;;;;;;1967894;73;21070;-76
2021/07/23 05:44:29;;;;;;;12.00;8.55;;;17.30;99.90;;;;;;1967992;73;21069;-77
2021/07/23 05:46:55;;;;;;;16.30;8.45;;;17.40;99.90;;;;;;1967916;73;21113;-72
2021/07/23 05:49:21;;;;;;;17.32;8.18;;;17.50;99.90;;;;;;1967989;73;21062;-77
2021/07/23 05:51:48;;;;;;;15.68;9.05;;;17.60;99.90;;;;;;1968061;73;21124;-75
2021/07/23 05:54:14;;;;;;;13.15;8.68;;;17.90;99.90;;;;;;1967960;73;21070;-77
2021/07/23 05:56:40;;;;;;;11.80;8.50;;;18.30;99.90;;;;;;1967826;73;21118;-76
2021/07/23 05:59:06;;;;;;;11.05;7.67;;;19.20;99.90;;;;;;1967898;73;21195;-77
2021/07/23 06:01:32;;;;;;;12.98;8.43;;;19.80;99.90;;;;;;1968039;73;21073;-78
2021/07/23 06:03:59;;;;;;;13.95;8.53;;;19.90;99.90;;;;;;1967926;73;21039;-77
2021/07/23 06:06:25;;;;;;;12.15;7.62;;;19.80;99.90;;;;;;1967943;73;21085;-78
2021/07/23 06:08:51;;;;;;;12.55;7.30;;;20.50;99.90;;;;;;1967932;72;21070;-79
2021/07/23 06:11:17;;;;;;;11.78;7.75;;;20.50;99.90;;;;;;1967949;73;21132;-77
2021/07/23 06:13:44;;;;;;;13.90;7.78;;;21.30;99.90;;;;;;1968055;73;21035;-76
2021/07/23 06:16:11;;;;;;;13.90;7.12;;;21.20;99.90;;;;;;1968110;71;21116;-76
2021/07/23 06:18:37;;;;;;;11.75;7.37;;;21.30;99.90;;;;;;1968008;73;21517;-77
2021/07/23 06:21:03;;;;;;;13.25;7.70;;;21.50;99.90;;;;;;1967970;73;21551;-75
2021/07/23 06:23:30;;;;;;;12.60;8.10;;;22.30;99.90;;;;;;1968126;73;21466;-76
2021/07/23 06:25:56;;;;;;;12.28;7.95;;;22.30;99.90;;;;;;1967876;73;21163;-76
2021/07/23 06:28:22;;;;;;;12.78;7.00;;;22.00;99.90;;;;;;1968804;73;21061;-75
2021/07/23 06:30:48;;;;;;;14.98;7.65;;;23.00;99.90;;;;;;1971825;73;21006;-75
2021/07/23 06:33:14;;;;;;;13.50;8.35;;;23.10;99.90;;;;;;1969183;73;21129;-75
2021/07/23 06:35:40;;;;;;;16.02;7.30;;;23.10;99.90;;;;;;1930960;73;21069;-75
2021/07/23 06:38:07;;;;;;;10.98;7.72;;;22.90;99.90;;;;;;1968061;73;21050;-74
2021/07/23 06:40:33;;;;;;;12.73;7.53;;;22.80;99.90;;;;;;1967893;73;21074;-75
2021/07/23 06:42:59;;;;;;;9.45;6.62;;;23.00;99.90;;;;;;1968032;73;21391;-75
2021/07/23 06:45:25;;;;;;;11.90;7.47;;;23.60;99.90;;;;;;1966558;73;21556;-75
2021/07/23 06:47:51;;;;;;;14.15;7.15;;;23.20;99.90;;;;;;1966804;73;21500;-75
2021/07/23 06:50:17;;;;;;;13.53;7.67;;;23.00;99.90;;;;;;1964963;72;21486;-75
2021/07/23 06:52:43;;;;;;;14.83;7.80;;;22.70;99.90;;;;;;1967932;73;21450;-75
2021/07/23 06:55:10;;;;;;;12.07;6.65;;;22.90;99.90;;;;;;1956400;73;21495;-75
2021/07/23 06:57:36;;;;;;;20.45;8.15;;;23.10;99.90;;;;;;1966321;72;21082;-75
2021/07/23 07:00:02;;;;;;;14.40;7.85;;;23.30;99.90;;;;;;1967179;73;21124;-75
2021/07/23 07:02:28;;;;;;;12.65;6.97;;;23.20;99.90;;;;;;1968047;73;21054;-75
2021/07/23 07:04:54;;;;;;;17.90;7.95;;;23.80;99.90;;;;;;1968083;71;21107;-76
2021/07/23 07:07:21;;;;;;;11.48;6.80;;;23.60;99.90;;;;;;1968071;73;21054;-75
2021/07/23 07:09:47;;;;;;;15.35;7.37;;;23.80;99.90;;;;;;1968012;73;21027;-76
2021/07/23 07:12:13;;;;;;;18.98;8.20;;;24.10;99.90;;;;;;1967928;73;21057;-75
2021/07/23 07:14:39;;;;;;;20.60;7.72;;;23.80;99.90;;;;;;1967912;73;21119;-75
2021/07/23 07:17:05;;;;;;;10.98;6.78;;;24.30;99.90;;;;;;1967924;73;21128;-75
2021/07/23 07:19:31;;;;;;;9.40;6.58;;;24.00;99.90;;;;;;1968052;73;21030;-75
2021/07/23 07:21:57;;;;;;;18.77;7.65;;;24.80;99.90;;;;;;1967857;73;21058;-75
2021/07/23 07:24:23;;;;;;;20.75;7.22;;;24.60;99.90;;;;;;1967930;73;21139;-75
2021/07/23 07:26:49;;;;;;;8.50;6.45;;;23.80;99.90;;;;;;1967959;73;21093;-75
2021/07/23 07:29:16;;;;;;;11.33;6.65;;;24.60;99.90;;;;;;1967910;73;21105;-75
2021/07/23 07:31:42;;;;;;;9.83;6.75;;;25.50;99.90;;;;;;1967805;73;21465;-75
2021/07/23 07:34:08;;;;;;;10.53;6.55;;;26.10;99.90;;;;;;1967943;73;21567;-75
2021/07/23 07:36:34;;;;;;;11.35;6.62;;;25.50;99.90;;;;;;1967758;73;21482;-75
2021/07/23 07:39:00;;;;;;;15.75;7.20;;;25.60;99.90;;;;;;1967623;73;21481;-76
2021/07/23 07:41:27;;;;;;;9.65;6.80;;;25.40;99.90;;;;;;1967949;73;21555;-75
2021/07/23 07:43:53;;;;;;;9.00;6.67;;;25.50;99.90;;;;;;1967863;73;21038;-75
2021/07/23 07:46:19;;;;;;;12.65;6.37;;;25.80;99.90;;;;;;1967747;72;21050;-75
2021/07/23 07:48:45;;;;;;;9.68;6.28;;;26.40;99.90;;;;;;1967827;73;21058;-75
2021/07/23 07:51:11;;;;;;;10.13;6.70;;;27.00;99.90;;;;;;1967805;73;21026;-75
2021/07/23 07:53:39;;;;;;;11.18;6.08;;;27.00;99.90;;;;;;1967742;71;21115;-75
2021/07/23 07:56:05;;;;;;;12.03;6.75;;;27.40;99.90;;;;;;1967883;73;21060;-75
2021/07/23 07:58:32;;;;;;;11.80;7.03;;;26.90;99.90;;;;;;1967761;73;21058;-76
2021/07/23 08:00:58;;;;;;;8.58;7.35;;;26.00;99.90;;;;;;1967662;73;21139;-76
2021/07/23 08:03:24;;;;;;;12.10;6.45;;;26.30;99.90;;;;;;1967750;73;21027;-74
2021/07/23 08:05:53;;;;;;;16.55;7.58;;;26.50;99.90;;;;;;1967697;73;21046;-73
2021/07/23 08:08:20;;;;;;;18.05;7.10;;;26.80;99.90;;;;;;1967731;73;21140;-75
2021/07/23 08:10:46;;;;;;;11.73;7.10;;;26.30;99.90;;;;;;1967605;72;21616;-73
2021/07/23 08:13:12;;;;;;;10.30;7.30;;;26.10;99.90;;;;;;1967733;73;21031;-74
2021/07/23 08:15:38;;;;;;;10.58;7.28;;;25.90;99.90;;;;;;1967612;73;21135;-73
2021/07/23 08:18:04;;;;;;;10.18;6.67;;;25.50;99.90;;;;;;1967616;73;21054;-74
2021/07/23 08:20:32;;;;;;;12.13;7.65;;;24.90;99.90;;;;;;1967644;73;21027;-73
2021/07/23 08:22:58;;;;;;;15.60;6.85;;;25.50;99.90;;;;;;1967692;73;21567;-72
2021/07/23 08:25:24;;;;;;;14.63;7.83;;;25.30;99.90;;;;;;1967923;72;21477;-74
2021/07/23 08:27:50;;;;;;;12.53;7.20;;;25.40;99.90;;;;;;1967766;73;21545;-72
2021/07/23 08:30:16;;;;;;;11.63;6.85;;;25.20;99.90;;;;;;1967971;73;21066;-73
2021/07/23 08:32:42;;;;;;;12.13;7.45;;;25.40;99.90;;;;;;1967866;73;21156;-73
2021/07/23 08:35:09;;;;;;;13.95;7.33;;;26.00;99.90;;;;;;1967916;73;21058;-72
2021/07/23 08:37:35;;;;;;;12.07;7.37;;;25.40;99.90;;;;;;1967918;73;21128;-73
2021/07/23 08:40:04;;;;;;;10.40;7.12;;;25.50;99.90;;;;;;1967988;73;21057;-76
2021/07/23 08:42:29;;;;;;;12.45;7.03;;;25.50;99.90;;;;;;1967252;71;21082;-73
2021/07/23 08:44:55;;;;;;;11.00;7.12;;;26.10;99.90;;;;;;1967933;73;21058;-74
2021/07/23 08:47:21;;;;;;;14.43;7.00;;;26.20;99.90;;;;;;1968049;73;21135;-73
2021/07/23 08:49:47;;;;;;;13.93;6.97;;;26.80;99.90;;;;;;1968001;73;21115;-73
2021/07/23 08:52:13;;;;;;;15.98;7.37;;;26.90;99.90;;;;;;1967908;73;21054;-73
2021/07/23 08:54:39;;;;;;;14.20;7.05;;;26.80;99.90;;;;;;1967875;73;21154;-73
2021/07/23 08:57:05;;;;;;;13.85;7.20;;;26.80;99.90;;;;;;1966811;73;21062;-74
2021/07/23 08:59:32;;;;;;;12.20;7.22;;;26.30;99.90;;;;;;1966118;72;21139;-74
2021/07/23 09:01:58;;;;;;;11.50;6.85;;;27.00;99.90;;;;;;1967430;73;21058;-73
2021/07/23 09:04:24;;;;;;;15.88;7.87;;;27.30;99.90;;;;;;1968222;73;21035;-73
2021/07/23 09:06:50;;;;;;;10.58;7.42;;;27.40;99.90;;;;;;1969053;73;21034;-73
2021/07/23 09:09:16;;;;;;;13.28;6.95;;;27.40;99.90;;;;;;1968257;73;21105;-73
2021/07/23 09:11:42;;;;;;;10.75;7.08;;;26.60;99.90;;;;;;1968921;73;21192;-71
2021/07/23 09:14:08;;;;;;;13.60;6.87;;;26.50;99.90;;;;;;1968041;73;21062;-72
2021/07/23 09:16:34;;;;;;;8.33;6.67;;;26.90;99.90;;;;;;1967804;73;21127;-72
2021/07/23 09:19:01;;;;;;;14.87;7.15;;;26.90;99.90;;;;;;1967969;73;21069;-73
2021/07/23 09:21:27;;;;;;;18.65;7.20;;;27.10;99.90;;;;;;1967728;73;21104;-73
2021/07/23 09:23:53;;;;;;;14.00;7.20;;;27.50;99.90;;;;;;1967896;73;21203;-74
2021/07/23 09:26:19;;;;;;;8.38;6.83;;;27.70;99.90;;;;;;1967677;73;21066;-73
2021/07/23 09:28:45;;;;;;;12.25;7.17;;;28.20;99.90;;;;;;1967928;73;21066;-77
2021/07/23 09:31:12;;;;;;;13.53;6.58;;;28.60;99.90;;;;;;1967735;73;21034;-73
2021/07/23 09:33:39;;;;;;;13.45;6.42;;;28.70;99.90;;;;;;1967857;73;21057;-73
2021/07/23 09:36:05;;;;;;;12.85;6.30;;;29.20;99.90;;;;;;1967707;71;21062;-74
2021/07/23 09:38:31;;;;;;;19.90;6.47;;;29.20;99.90;;;;;;1967876;73;21213;-73
2021/07/23 09:40:57;;;;;;;15.30;7.03;;;29.50;99.90;;;;;;1967847;73;21030;-73
2021/07/23 09:43:23;;;;;;;8.83;6.60;;;29.10;99.90;;;;;;1967906;71;21127;-73
2021/07/23 09:45:50;;;;;;;16.07;6.28;;;29.00;99.90;;;;;;1967876;73;21499;-73
2021/07/23 09:48:16;;;;;;;11.80;5.92;;;29.10;99.90;;;;;;1967776;72;21546;-72
2021/07/23 09:50:49;;;;;;;13.80;6.30;;;27.80;99.90;;;;;;1967620;73;21497;-75
2021/07/23 09:53:13;;;;;;;8.78;6.15;;;28.50;99.90;;;;;;1966365;73;21075;-73
2021/07/23 09:55:39;;;;;;;14.85;5.95;;;29.10;99.90;;;;;;1967759;73;21463;-72
2021/07/23 09:58:09;;;;;;;9.25;6.03;;;29.40;99.90;;;;;;1967693;73;21131;-73
2021/07/23 10:00:35;;;;;;;9.70;6.10;;;28.40;99.90;;;;;;1968037;73;21035;-74
2021/07/23 10:03:01;;;;;;;9.58;6.20;;;28.20;99.90;;;;;;1967681;73;21065;-74
2021/07/23 10:05:30;;;;;;;12.30;6.17;;;28.20;99.90;;;;;;1967711;73;21026;-74
2021/07/23 10:07:55;;;;;;;12.10;5.33;;;28.30;99.90;;;;;;1967082;73;21173;-73
2021/07/23 10:10:21;;;;;;;11.90;6.50;;;28.30;99.90;;;;;;1967697;71;21053;-74
2021/07/23 10:12:47;;;;;;;11.05;6.33;;;28.10;99.90;;;;;;1967693;73;21139;-74
2021/07/23 10:15:13;;;;;;;9.60;5.78;;;28.80;99.90;;;;;;1967705;73;21131;-74
2021/07/23 10:17:39;;;;;;;11.73;5.62;;;29.30;99.90;;;;;;1967663;73;21536;-73
2021/07/23 10:20:06;;;;;;;10.08;5.35;;;29.80;99.90;;;;;;1967804;72;21458;-74
2021/07/23 10:22:32;;;;;;;12.55;5.10;;;28.20;99.90;;;;;;1967668;73;21437;-73
2021/07/23 10:24:58;;;;;;;10.13;5.37;;;28.40;99.90;;;;;;1967826;73;21470;-73
2021/07/23 10:27:24;;;;;;;10.78;4.37;;;27.70;99.90;;;;;;1967641;73;21204;-74
2021/07/23 10:29:50;;;;;;;11.83;5.80;;;28.50;99.90;;;;;;1967825;73;21189;-74
2021/07/23 10:32:17;;;;;;;7.45;4.75;;;27.80;99.90;;;;;;1967927;73;21097;-75
2021/07/23 10:34:44;;;;;;;10.78;5.33;;;27.50;99.90;;;;;;1967832;73;21023;-74
2021/07/23 10:37:10;;;;;;;6.58;5.08;;;27.40;99.90;;;;;;1967768;73;21489;-74
2021/07/23 10:39:36;;;;;;;10.10;5.30;;;27.60;99.90;;;;;;1967797;73;21167;-75
2021/07/23 10:42:02;;;;;;;10.95;4.85;;;28.30;99.90;;;;;;1967823;73;21119;-75
2021/07/23 10:44:28;;;;;;;6.50;4.70;;;28.70;99.90;;;;;;1967893;73;21112;-75
2021/07/23 10:46:55;;;;;;;5.85;4.65;;;29.20;99.90;;;;;;1967753;73;21057;-76
2021/07/23 10:49:21;;;;;;;7.35;4.42;;;29.30;99.90;;;;;;1967799;73;21061;-76
2021/07/23 10:51:47;;;;;;;5.75;4.17;;;29.30;99.90;;;;;;1967865;73;21058;-75
2021/07/23 10:54:13;;;;;;;11.10;4.97;;;29.60;99.90;;;;;;1968020;73;21058;-74
2021/07/23 10:56:39;;;;;;;8.00;5.15;;;30.20;99.90;;;;;;1968057;71;21046;-75
2021/07/23 10:59:06;;;;;;;10.15;5.20;;;30.30;99.90;;;;;;1967712;73;21062;-74
2021/07/23 11:01:32;;;;;;;11.60;5.45;;;30.30;99.90;;;;;;1967943;73;21112;-74
2021/07/23 11:04:01;;;;;;;11.45;5.45;;;29.60;99.90;;;;;;1969613;73;21132;-70
2021/07/23 11:06:27;;;;;;;8.50;5.37;;;28.60;99.90;;;;;;1970557;73;21109;-71
2021/07/23 11:08:54;;;;;;;7.00;5.00;;;28.80;99.90;;;;;;1968775;73;21100;-74
2021/07/23 11:11:20;;;;;;;7.55;5.22;;;29.30;99.90;;;;;;1967759;73;21058;-74
2021/07/23 11:13:46;;;;;;;5.80;5.10;;;29.50;99.90;;;;;;1967780;73;21054;-73
2021/07/23 11:16:12;;;;;;;6.97;5.08;;;29.30;99.90;;;;;;1967710;73;21127;-74
2021/07/23 11:18:38;;;;;;;8.48;5.45;;;29.80;99.90;;;;;;1967662;73;21123;-74
2021/07/23 11:21:05;;;;;;;7.65;4.53;;;30.20;99.90;;;;;;1967679;73;21205;-74
2021/07/23 11:23:31;;;;;;;12.82;6.05;;;30.30;99.90;;;;;;1967725;73;21050;-75
2021/07/23 11:25:58;;;;;;;9.93;5.22;;;29.70;99.90;;;;;;1962377;73;21179;-75
2021/07/23 11:28:26;;;;;;;13.18;5.42;;;29.80;99.90;;;;;;1965967;73;21156;-71
2021/07/23 11:30:54;;;;;;;7.60;4.90;;;30.20;99.90;;;;;;1967634;73;21031;-71
2021/07/23 11:33:20;;;;;;;10.98;5.55;;;30.70;99.90;;;;;;1967342;72;21514;-72
2021/07/23 11:38:31;;;;;;;9.73;5.35;;;30.10;99.90;;;;;;1995839;72;21168;-71
2021/07/23 11:40:57;;;;;;;8.00;5.58;;;29.60;99.90;;;;;;1996896;72;21025;-72
2021/07/23 11:43:23;;;;;;;11.33;5.28;;;29.70;99.90;;;;;;1996811;72;21120;-71
2021/07/23 11:45:50;;;;;;;14.53;4.95;;;29.60;99.90;;;;;;1997161;72;21120;-71
2021/07/23 11:48:20;;;;;;;5.80;4.90;;;30.00;99.90;;;;;;1997057;72;21058;-72
2021/07/23 11:50:46;;;;;;;6.62;4.83;;;30.60;99.30;;;;;;1996934;72;21062;-72
2021/07/23 11:53:12;;;;;;;9.80;4.97;;;31.00;97.40;;;;;;1996934;72;21128;-72
2021/07/23 11:55:38;;;;;;;6.15;5.20;;;30.80;97.90;;;;;;1996852;72;21116;-72
2021/07/23 11:58:05;;;;;;;8.75;4.80;;;30.90;97.20;;;;;;1996807;72;21200;-72
2021/07/23 12:00:31;;;;;;;7.78;5.15;;;29.60;99.30;;;;;;1996990;72;21178;-72
2021/07/23 12:02:57;;;;;;;6.87;4.87;;;29.50;99.10;;;;;;1997073;72;21454;-72
2021/07/23 12:05:23;;;;;;;7.65;4.62;;;30.20;97.50;;;;;;1997179;70;21475;-72
2021/07/23 12:07:50;;;;;;;6.17;5.08;;;30.10;98.20;;;;;;1997122;72;21474;-72
2021/07/23 12:10:16;;;;;;;7.97;5.47;;;30.50;98.50;;;;;;1997258;70;21132;-72
2021/07/23 12:12:42;;;;;;;7.58;4.95;;;31.10;95.30;;;;;;1997391;71;21034;-72
2021/07/23 12:15:08;;;;;;;16.20;5.15;;;30.70;95.30;;;;;;1997337;72;21046;-72
2021/07/23 12:17:35;;;;;;;18.15;5.08;;;30.10;95.70;;;;;;1997252;72;21128;-72
2021/07/23 12:20:01;;;;;;;6.15;5.28;;;30.20;95.90;;;;;;1997159;72;21560;-71
2021/07/23 12:22:27;;;;;;;9.65;5.12;;;30.10;95.80;;;;;;1997137;72;21437;-72
2021/07/23 12:24:53;;;;;;;7.33;5.45;;;30.10;95.90;;;;;;1997196;70;21469;-71
2021/07/23 12:27:22;;;;;;;9.10;5.42;;;30.10;96.10;;;;;;1997357;72;21073;-72
2021/07/23 12:29:47;;;;;;;7.20;5.33;;;30.30;95.70;;;;;;1997104;72;21160;-72
2021/07/23 12:32:22;;;;;;;8.28;5.10;;;31.20;94.50;;;;;;1997681;72;21050;-72
2021/07/23 12:34:42;;;;;;;11.12;4.83;;;31.30;94.30;;;;;;1994284;72;21118;-72
2021/07/23 12:37:08;;;;;;;6.35;5.15;;;31.90;93.50;;;;;;1997430;70;21513;-72